createdAt,value
2019-05-23T00:00:54.862Z,96434.65
2019-05-23T00:03:40.125Z,96439.23
2019-05-23T00:06:25.150Z,96444.23
2019-05-23T00:09:10.331Z,96441.49
2019-05-23T00:11:40.086Z,96432.30
2019-05-23T00:14:08.250Z,96433.98
2019-05-23T00:16:36.921Z,96434.95
2019-05-23T00:19:04.309Z,96432.92
2019-05-23T00:21:31.655Z,96431.77
2019-05-23T00:23:58.709Z,96432.83
2019-05-23T00:26:25.758Z,96439.60
2019-05-23T00:29:08.984Z,96441.72
2019-05-23T00:31:22.214Z,96446.25
2019-05-23T00:33:49.548Z,96437.07
2019-05-23T00:36:17.664Z,96436.48
2019-05-23T00:38:45.084Z,96448.62
2019-05-23T00:41:12.452Z,96447.46
2019-05-23T00:43:39.788Z,96445.48
2019-05-23T00:46:07.182Z,96447.27
2019-05-23T00:48:34.524Z,96438.30
2019-05-23T00:51:04.963Z,96436.52
2019-05-23T00:53:30.952Z,96437.59
2019-05-23T00:55:58.307Z,96435.58
2019-05-23T00:58:25.353Z,96440.10
2019-05-23T01:00:52.731Z,96434.98
2019-05-23T01:03:20.082Z,96433.77
2019-05-23T01:05:47.219Z,96440.08
2019-05-23T01:08:14.265Z,96435.11
2019-05-23T01:10:41.316Z,96431.77
2019-05-23T01:13:08.669Z,96431.91
2019-05-23T01:15:37.144Z,96423.23
2019-05-23T01:18:04.522Z,96430.50
2019-05-23T01:20:31.855Z,96424.27
2019-05-23T01:22:59.212Z,96426.84
2019-05-23T01:25:26.571Z,96424.66
2019-05-23T01:27:53.921Z,96422.69
2019-05-23T01:30:21.299Z,96429.05
2019-05-23T01:32:48.344Z,96423.42
2019-05-23T01:35:15.716Z,96432.70
2019-05-23T01:37:43.051Z,96427.50
2019-05-23T01:40:10.122Z,96431.45
2019-05-23T01:42:37.158Z,96424.53
2019-05-23T01:45:04.489Z,96426.77
2019-05-23T01:47:31.521Z,96421.53
2019-05-23T01:49:59.057Z,96422.32
2019-05-23T01:52:26.151Z,96422.42
2019-05-23T01:54:53.214Z,96422.95
2019-05-23T01:57:20.257Z,96425.41
2019-05-23T01:59:47.611Z,96419.55
2019-05-23T02:02:14.924Z,96424.86
2019-05-23T02:04:42.304Z,96421.67
2019-05-23T02:07:09.600Z,96430.50
2019-05-23T02:09:36.908Z,96431.17
2019-05-23T02:12:04.271Z,96430.41
2019-05-23T02:14:31.373Z,96427.17
2019-05-23T02:16:58.445Z,96422.55
2019-05-23T02:19:25.821Z,96423.75
2019-05-23T02:21:53.116Z,96427.41
2019-05-23T02:24:20.245Z,96419.39
2019-05-23T02:26:47.596Z,96417.89
2019-05-23T02:29:14.953Z,96418.19
2019-05-23T02:31:42.287Z,96417.98
2019-05-23T02:34:09.639Z,96415.13
2019-05-23T02:36:37.013Z,96412.57
2019-05-23T02:39:04.036Z,96416.84
2019-05-23T02:41:31.091Z,96413.91
2019-05-23T02:43:58.451Z,96412.94
2019-05-23T02:46:25.499Z,96412.80
2019-05-23T02:48:52.534Z,96413.56
2019-05-23T02:51:19.639Z,96412.88
2019-05-23T02:53:46.625Z,96403.02
2019-05-23T02:56:13.675Z,96404.86
2019-05-23T02:58:40.711Z,96398.60
2019-05-23T03:01:08.030Z,96405.69
2019-05-23T03:03:35.343Z,96404.20
2019-05-23T03:06:02.402Z,96404.71
2019-05-23T03:08:29.744Z,96409.61
2019-05-23T03:10:57.123Z,96405.25
2019-05-23T03:13:24.176Z,96407.28
2019-05-23T03:15:51.504Z,96410.31
2019-05-23T03:18:18.561Z,96410.39
2019-05-23T03:20:45.912Z,96409.84
2019-05-23T03:23:13.264Z,96414.36
2019-05-23T03:25:40.638Z,96409.98
2019-05-23T03:28:07.692Z,96411.83
2019-05-23T03:30:34.983Z,96410.25
2019-05-23T03:33:02.077Z,96409.91
2019-05-23T03:35:29.157Z,96413.47
2019-05-23T03:37:56.198Z,96411.89
2019-05-23T03:40:24.305Z,96411.53
2019-05-23T03:42:51.357Z,96410.39
2019-05-23T03:45:18.759Z,96415.70
2019-05-23T03:47:45.819Z,96409.89
2019-05-23T03:50:13.142Z,96412.77
2019-05-23T03:52:40.499Z,96405.99
2019-05-23T03:55:07.859Z,96410.84
2019-05-23T03:57:35.232Z,96406.91
2019-05-23T04:00:02.276Z,96412.53
2019-05-23T04:02:30.746Z,96414.86
2019-05-23T04:04:58.110Z,96412.42
2019-05-23T04:07:26.323Z,96410.27
2019-05-23T04:09:53.624Z,96407.83
2019-05-23T04:12:20.923Z,96405.97
2019-05-23T04:14:47.970Z,96407.31
2019-05-23T04:17:15.283Z,96416.63
2019-05-23T04:19:42.335Z,96410.61
2019-05-23T04:22:09.686Z,96409.29
2019-05-23T04:24:37.057Z,96411.81
2019-05-23T04:27:04.112Z,96406.16
2019-05-23T04:29:31.439Z,96397.38
2019-05-23T04:32:07.983Z,96403.75
2019-05-23T04:34:27.792Z,96407.44
2019-05-23T04:36:54.881Z,96406.97
2019-05-23T04:39:22.196Z,96403.50
2019-05-23T04:41:49.563Z,96402.69
2019-05-23T04:44:16.629Z,96403.69
2019-05-23T04:46:43.663Z,96412.63
2019-05-23T04:49:10.716Z,96408.02
2019-05-23T04:51:37.756Z,96405.70
2019-05-23T04:54:06.248Z,96407.96
2019-05-23T04:56:33.375Z,96404.59
2019-05-23T04:59:01.481Z,96405.94
2019-05-23T05:01:28.605Z,96401.63
2019-05-23T05:03:57.592Z,96407.97
2019-05-23T05:06:24.951Z,96408.69
2019-05-23T05:08:53.957Z,96403.20
2019-05-23T05:11:20.982Z,96399.42
2019-05-23T05:13:48.340Z,96405.58
2019-05-23T05:16:15.694Z,96412.84
2019-05-23T05:18:43.054Z,96412.27
2019-05-23T05:21:10.425Z,96407.96
2019-05-23T05:23:37.482Z,96411.58
2019-05-23T05:26:04.808Z,96413.41
2019-05-23T05:28:31.969Z,96412.78
2019-05-23T05:30:59.330Z,96419.00
2019-05-23T05:33:26.654Z,96417.13
2019-05-23T05:35:54.049Z,96414.35
2019-05-23T05:38:21.116Z,96412.74
2019-05-23T05:40:48.164Z,96408.86
2019-05-23T05:43:15.600Z,96418.13
2019-05-23T05:45:42.948Z,96421.76
2019-05-23T05:48:10.023Z,96427.63
2019-05-23T05:50:37.435Z,96419.34
2019-05-23T05:53:04.499Z,96413.91
2019-05-23T05:55:31.863Z,96422.57
2019-05-23T05:58:00.320Z,96417.97
2019-05-23T06:00:27.698Z,96415.58
2019-05-23T06:03:04.295Z,96415.84
2019-05-23T06:05:23.820Z,96412.65
2019-05-23T06:07:51.181Z,96421.42
2019-05-23T06:10:18.541Z,96420.89
2019-05-23T06:12:46.024Z,96420.23
2019-05-23T06:15:13.272Z,96417.27
2019-05-23T06:17:40.596Z,96421.58
2019-05-23T06:20:07.955Z,96420.52
2019-05-23T06:22:35.309Z,96422.66
2019-05-23T06:25:03.481Z,96422.78
2019-05-23T06:27:31.664Z,96431.69
2019-05-23T06:29:59.027Z,96424.17
2019-05-23T06:32:26.143Z,96420.67
2019-05-23T06:34:53.272Z,96425.38
2019-05-23T06:37:21.901Z,96420.16
2019-05-23T06:39:49.427Z,96416.66
2019-05-23T06:42:16.811Z,96417.72
2019-05-23T06:44:44.185Z,96418.66
2019-05-23T06:47:11.227Z,96419.81
2019-05-23T06:49:38.284Z,96413.99
2019-05-23T06:52:05.401Z,96412.75
2019-05-23T06:54:32.765Z,96414.57
2019-05-23T06:57:00.119Z,96414.72
2019-05-23T06:59:27.175Z,96422.05
2019-05-23T07:01:54.466Z,96418.83
2019-05-23T07:04:21.879Z,96404.88
2019-05-23T07:06:48.996Z,96411.95
2019-05-23T07:09:16.052Z,96410.05
2019-05-23T07:11:43.100Z,96413.53
2019-05-23T07:14:10.497Z,96411.19
2019-05-23T07:16:37.570Z,96403.62
2019-05-23T07:19:04.657Z,96409.92
2019-05-23T07:21:31.705Z,96412.95
2019-05-23T07:23:59.119Z,96421.00
2019-05-23T07:26:26.160Z,96416.00
2019-05-23T07:28:53.262Z,96411.63
2019-05-23T07:31:21.293Z,96407.83
2019-05-23T07:34:01.250Z,96413.24
2019-05-23T07:36:17.706Z,96411.09
2019-05-23T07:38:45.056Z,96408.80
2019-05-23T07:41:12.125Z,96413.19
2019-05-23T07:43:39.213Z,96411.95
2019-05-23T07:46:06.629Z,96413.41
2019-05-23T07:48:33.662Z,96413.03
2019-05-23T07:51:00.748Z,96415.98
2019-05-23T07:53:28.067Z,96415.48
2019-05-23T07:55:55.413Z,96414.52
2019-05-23T07:58:22.451Z,96415.58
2019-05-23T08:00:50.744Z,96416.24
2019-05-23T08:03:18.098Z,96417.17
2019-05-23T08:05:45.474Z,96413.52
2019-05-23T08:08:12.627Z,96416.98
2019-05-23T08:10:39.828Z,96409.83
2019-05-23T08:13:06.872Z,96416.09
2019-05-23T08:15:33.917Z,96415.14
2019-05-23T08:18:01.320Z,96416.58
2019-05-23T08:20:28.665Z,96415.75
2019-05-23T08:22:56.037Z,96412.23
2019-05-23T08:25:23.317Z,96410.81
2019-05-23T08:27:50.361Z,96407.94
2019-05-23T08:30:17.666Z,96407.44
2019-05-23T08:32:44.738Z,96415.87
2019-05-23T08:35:16.395Z,96407.82
2019-05-23T08:37:40.526Z,96405.69
2019-05-23T08:40:07.562Z,96408.69
2019-05-23T08:42:34.615Z,96412.88
2019-05-23T08:45:02.045Z,96405.73
2019-05-23T08:47:29.363Z,96405.88
2019-05-23T08:49:56.395Z,96401.25
2019-05-23T08:52:23.729Z,96407.39
2019-05-23T08:54:51.131Z,96401.88
2019-05-23T08:57:18.489Z,96401.19
2019-05-23T08:59:45.840Z,96397.44
2019-05-23T09:02:13.187Z,96395.68
2019-05-23T09:05:01.343Z,96402.20
2019-05-23T09:07:10.252Z,96396.30
2019-05-23T09:09:37.280Z,96400.91
2019-05-23T09:12:04.355Z,96393.77
2019-05-23T09:14:31.467Z,96404.66
2019-05-23T09:16:58.893Z,96398.09
2019-05-23T09:19:25.959Z,96395.96
2019-05-23T09:21:57.451Z,96391.84
2019-05-23T09:24:22.065Z,96387.70
2019-05-23T09:26:49.116Z,96397.00
2019-05-23T09:29:16.459Z,96393.37
2019-05-23T09:31:43.816Z,96384.80
2019-05-23T09:34:11.101Z,96386.32
2019-05-23T09:36:38.513Z,96380.33
2019-05-23T09:39:05.555Z,96383.29
2019-05-23T09:41:32.586Z,96383.95
2019-05-23T09:43:59.708Z,96384.30
2019-05-23T09:46:26.746Z,96375.53
2019-05-23T09:48:54.053Z,96371.55
2019-05-23T09:51:21.409Z,96373.04
2019-05-23T09:53:48.536Z,96369.30
2019-05-23T09:56:15.934Z,96374.11
2019-05-23T09:58:43.271Z,96377.61
2019-05-23T10:01:11.372Z,96369.52
2019-05-23T10:03:38.598Z,96373.91
2019-05-23T10:06:05.634Z,96374.20
2019-05-23T10:08:33.004Z,96371.48
2019-05-23T10:11:00.442Z,96370.38
2019-05-23T10:13:38.368Z,96364.62
2019-05-23T10:15:56.739Z,96362.52
2019-05-23T10:18:24.012Z,96366.70
2019-05-23T10:20:51.312Z,96366.28
2019-05-23T10:23:18.442Z,96356.95
2019-05-23T10:25:45.833Z,96357.14
2019-05-23T10:28:12.885Z,96350.12
2019-05-23T10:30:40.216Z,96345.26
2019-05-23T10:33:12.000Z,96347.44
2019-05-23T10:35:36.374Z,96345.77
2019-05-23T10:38:03.424Z,96346.97
2019-05-23T10:40:30.452Z,96345.72
2019-05-23T10:42:57.482Z,96339.44
2019-05-23T10:45:24.860Z,96335.48
2019-05-23T10:47:51.902Z,96331.83
2019-05-23T10:50:19.209Z,96333.14
2019-05-23T10:52:46.245Z,96327.14
2019-05-23T10:55:13.569Z,96326.63
2019-05-23T10:57:40.925Z,96322.25
2019-05-23T11:00:07.977Z,96320.77
2019-05-23T11:02:35.448Z,96313.45
2019-05-23T11:05:12.243Z,96316.26
2019-05-23T11:07:31.260Z,96310.60
2019-05-23T11:09:58.634Z,96310.97
2019-05-23T11:12:25.979Z,96304.84
2019-05-23T11:14:53.036Z,96305.57
2019-05-23T11:17:20.403Z,96312.22
2019-05-23T11:19:47.735Z,96319.64
2019-05-23T11:22:15.097Z,96309.92
2019-05-23T11:24:42.440Z,96310.98
2019-05-23T11:27:09.812Z,96304.67
2019-05-23T11:29:37.171Z,96295.66
2019-05-23T11:32:04.225Z,96295.86
2019-05-23T11:34:31.555Z,96290.53
2019-05-23T11:36:58.592Z,96288.06
2019-05-23T11:39:25.972Z,96293.09
2019-05-23T11:41:52.997Z,96288.70
2019-05-23T11:44:20.371Z,96295.34
2019-05-23T11:46:47.716Z,96287.07
2019-05-23T11:49:14.767Z,96286.61
2019-05-23T11:51:42.139Z,96288.36
2019-05-23T11:54:10.128Z,96277.91
2019-05-23T11:56:37.752Z,96278.48
2019-05-23T11:59:04.804Z,96277.10
2019-05-23T12:01:32.159Z,96284.06
2019-05-23T12:03:59.525Z,96280.80
2019-05-23T12:06:26.864Z,96276.67
2019-05-23T12:08:54.196Z,96279.50
2019-05-23T12:11:21.594Z,96277.66
2019-05-23T12:13:48.868Z,96277.78
2019-05-23T12:16:16.996Z,96267.21
2019-05-23T12:18:44.355Z,96263.27
2019-05-23T12:21:11.708Z,96252.41
2019-05-23T12:23:39.085Z,96254.45
2019-05-23T12:26:06.422Z,96246.24
2019-05-23T12:28:33.777Z,96250.30
2019-05-23T12:31:00.826Z,96248.42
2019-05-23T12:33:28.202Z,96245.19
2019-05-23T12:35:55.533Z,96242.00
2019-05-23T12:38:22.894Z,96239.96
2019-05-23T12:40:50.244Z,96231.83
2019-05-23T12:43:17.606Z,96231.59
2019-05-23T12:45:44.973Z,96239.03
2019-05-23T12:48:12.336Z,96226.48
2019-05-23T12:50:39.377Z,96224.07
2019-05-23T12:53:06.409Z,96223.17
2019-05-23T12:55:33.458Z,96222.68
2019-05-23T12:58:00.501Z,96219.38
2019-05-23T13:00:27.907Z,96214.98
2019-05-23T13:02:54.908Z,96215.64
2019-05-23T13:05:22.219Z,96205.63
2019-05-23T13:07:49.621Z,96213.64
2019-05-23T13:10:16.660Z,96212.41
2019-05-23T13:12:43.783Z,96211.48
2019-05-23T13:15:11.177Z,96212.05
2019-05-23T13:17:38.490Z,96207.66
2019-05-23T13:20:05.528Z,96201.12
2019-05-23T13:22:32.634Z,96205.23
2019-05-23T13:24:59.675Z,96200.09
2019-05-23T13:27:27.040Z,96193.28
2019-05-23T13:29:54.076Z,96197.95
2019-05-23T13:32:21.448Z,96196.67
2019-05-23T13:34:48.506Z,96199.87
2019-05-23T13:37:17.158Z,96195.59
2019-05-23T13:39:44.647Z,96195.59
2019-05-23T13:42:11.989Z,96194.66
2019-05-23T13:44:39.026Z,96192.59
2019-05-23T13:47:06.404Z,96189.00
2019-05-23T13:49:33.436Z,96189.73
2019-05-23T13:52:00.560Z,96186.41
2019-05-23T13:54:27.930Z,96184.26
2019-05-23T13:56:55.282Z,96182.50
2019-05-23T13:59:23.564Z,96181.48
2019-05-23T14:01:50.658Z,96186.12
2019-05-23T14:04:17.793Z,96185.47
2019-05-23T14:06:45.025Z,96187.93
2019-05-23T14:09:13.292Z,96184.17
2019-05-23T14:11:40.669Z,96181.45
2019-05-23T14:14:09.262Z,96174.39
2019-05-23T14:16:36.534Z,96170.75
2019-05-23T14:19:03.838Z,96171.26
2019-05-23T14:21:31.001Z,96166.03
2019-05-23T14:23:57.997Z,96166.76
2019-05-23T14:26:25.413Z,96159.53
2019-05-23T14:28:52.761Z,96154.62
2019-05-23T14:31:20.108Z,96150.21
2019-05-23T14:33:47.458Z,96162.58
2019-05-23T14:36:14.809Z,96156.02
2019-05-23T14:38:42.265Z,96147.13
2019-05-23T14:41:09.297Z,96143.15
2019-05-23T14:43:36.365Z,96139.58
2019-05-23T14:46:03.488Z,96142.45
2019-05-23T14:48:30.869Z,96139.54
2019-05-23T14:50:57.918Z,96134.20
2019-05-23T14:53:25.292Z,96133.76
2019-05-23T14:55:52.354Z,96126.55
2019-05-23T14:58:19.691Z,96122.06
2019-05-23T15:00:47.051Z,96125.34
2019-05-23T15:03:14.177Z,96126.52
2019-05-23T15:05:42.458Z,96126.38
2019-05-23T15:08:09.813Z,96114.97
2019-05-23T15:10:36.842Z,96116.73
2019-05-23T15:13:04.252Z,96116.83
2019-05-23T15:15:31.677Z,96118.08
2019-05-23T15:17:58.772Z,96120.36
2019-05-23T15:20:25.928Z,96113.34
2019-05-23T15:28:17.037Z,96110.77
2019-05-23T15:30:50.437Z,96105.77
2019-05-23T15:33:17.589Z,96104.81
2019-05-23T15:35:44.617Z,96102.23
2019-05-23T15:41:02.271Z,96096.42
2019-05-23T15:43:29.626Z,96096.57
2019-05-23T15:45:56.968Z,96100.10
2019-05-23T15:48:24.022Z,96101.28
2019-05-23T15:50:51.209Z,96106.36
2019-05-23T15:53:18.525Z,96097.53
2019-05-23T15:55:45.810Z,96098.05
2019-05-23T15:58:12.853Z,96093.48
2019-05-23T16:00:40.177Z,96097.81
2019-05-23T16:03:07.637Z,96097.62
2019-05-23T16:05:35.050Z,96091.73
2019-05-23T16:08:02.571Z,96094.97
2019-05-23T16:10:29.604Z,96094.75
2019-05-23T16:12:57.717Z,96096.45
2019-05-23T16:15:24.750Z,96087.33
2019-05-23T16:17:52.078Z,96086.22
2019-05-23T16:20:19.431Z,96087.77
2019-05-23T16:25:20.678Z,96081.44
2019-05-23T16:27:48.799Z,96082.77
2019-05-23T16:30:15.838Z,96078.94
2019-05-23T16:32:46.455Z,96077.75
2019-05-23T16:35:11.902Z,96076.95
2019-05-23T16:37:39.010Z,96078.20
2019-05-23T16:40:25.529Z,96077.98
2019-05-23T16:42:52.585Z,96075.63
2019-05-23T16:45:19.916Z,96073.20
2019-05-23T16:47:46.966Z,96072.53
2019-05-23T16:50:14.002Z,96077.67
2019-05-23T16:52:41.045Z,96077.00
2019-05-23T16:55:08.409Z,96074.20
2019-05-23T16:57:35.786Z,96073.61
2019-05-23T17:00:03.122Z,96066.91
2019-05-23T17:02:32.145Z,96075.87
2019-05-23T17:05:09.157Z,96071.02
2019-05-23T17:07:28.257Z,96071.45
2019-05-23T17:10:07.582Z,96075.64
2019-05-23T17:12:27.520Z,96070.11
2019-05-23T17:14:54.829Z,96068.11
2019-05-23T17:17:42.919Z,96071.65
2019-05-23T17:19:51.829Z,96073.34
2019-05-23T17:22:18.863Z,96066.88
2019-05-23T17:24:45.911Z,96064.58
2019-05-23T17:27:13.202Z,96062.37
2019-05-23T17:29:40.249Z,96063.02
2019-05-23T17:32:07.285Z,96061.39
2019-05-23T17:34:34.336Z,96056.53
2019-05-23T17:37:01.644Z,96058.80
2019-05-23T17:39:28.700Z,96057.75
2019-05-23T17:41:56.042Z,96059.20
2019-05-23T17:44:23.114Z,96057.62
2019-05-23T17:46:50.144Z,96054.25
2019-05-23T17:49:17.197Z,96053.44
2019-05-23T17:51:44.503Z,96054.38
2019-05-23T17:54:11.548Z,96049.44
2019-05-23T17:56:39.064Z,96055.27
2019-05-23T17:59:06.400Z,96053.09
2019-05-23T18:01:33.434Z,96049.59
2019-05-23T18:04:01.727Z,96050.73
2019-05-23T18:06:28.832Z,96051.80
2019-05-23T18:08:56.240Z,96052.84
2019-05-23T18:11:23.272Z,96057.73
2019-05-23T18:13:50.334Z,96051.98
2019-05-23T18:16:17.376Z,96058.70
2019-05-23T18:18:44.689Z,96055.78
2019-05-23T18:21:12.090Z,96057.95
2019-05-23T18:23:39.150Z,96056.05
2019-05-23T18:26:06.167Z,96061.59
2019-05-23T18:28:33.538Z,96064.15
2019-05-23T18:31:00.846Z,96064.57
2019-05-23T18:33:28.121Z,96056.68
2019-05-23T18:35:55.523Z,96056.59
2019-05-23T18:38:22.646Z,96059.13
2019-05-23T18:41:02.845Z,96066.74
2019-05-23T18:43:18.811Z,96065.12
2019-05-23T18:45:45.858Z,96066.23
2019-05-23T18:48:13.301Z,96062.28
2019-05-23T18:50:40.368Z,96068.35
2019-05-23T18:53:07.821Z,96074.53
2019-05-23T18:55:34.874Z,96074.11
2019-05-23T18:58:01.916Z,96077.17
2019-05-23T19:00:29.262Z,96078.47
2019-05-23T19:02:56.406Z,96081.20
2019-05-23T19:05:26.730Z,96080.17
2019-05-23T19:07:52.196Z,96088.05
2019-05-23T19:10:23.698Z,96094.31
2019-05-23T19:12:50.735Z,96094.29
2019-05-23T19:15:17.788Z,96095.69
2019-05-23T19:17:45.172Z,96092.05
2019-05-23T19:20:12.475Z,96093.95
2019-05-23T19:22:39.510Z,96096.06
2019-05-23T19:25:06.908Z,96101.48
2019-05-23T19:27:33.937Z,96088.22
2019-05-23T19:30:00.985Z,96098.13
2019-05-23T19:32:29.639Z,96092.64
2019-05-23T19:34:57.163Z,96095.46
2019-05-23T19:37:24.193Z,96095.16
2019-05-23T19:39:51.379Z,96092.09
2019-05-23T19:42:18.697Z,96091.17
2019-05-23T19:44:45.745Z,96090.13
2019-05-23T19:47:13.098Z,96093.03
2019-05-23T19:49:40.470Z,96094.03
2019-05-23T19:52:07.505Z,96090.17
2019-05-23T19:54:34.550Z,96089.43
2019-05-23T19:57:01.751Z,96087.88
2019-05-23T19:59:28.785Z,96087.14
2019-05-23T20:01:55.846Z,96090.66
2019-05-23T20:04:27.059Z,96093.29
2019-05-23T20:06:52.368Z,96088.11
2019-05-23T20:09:19.705Z,96083.92
2019-05-23T20:11:54.172Z,96091.07
2019-05-23T20:14:15.851Z,96090.19
2019-05-23T20:19:33.406Z,96096.64
2019-05-23T20:22:00.650Z,96092.41
2019-05-23T20:24:28.015Z,96088.95
2019-05-23T20:26:55.057Z,96090.64
2019-05-23T20:29:22.403Z,96089.52
2019-05-23T20:31:49.760Z,96093.65
2019-05-23T20:34:17.137Z,96093.53
2019-05-23T20:36:44.491Z,96096.84
2019-05-23T20:39:11.534Z,96092.47
2019-05-23T20:41:38.590Z,96091.66
2019-05-23T20:44:05.628Z,96092.03
2019-05-23T20:46:32.978Z,96090.34
2019-05-23T20:49:00.329Z,96091.60
2019-05-23T20:51:27.683Z,96086.26
2019-05-23T20:53:55.070Z,96091.77
2019-05-23T20:56:22.115Z,96084.16
2019-05-23T20:58:49.438Z,96087.16
2019-05-23T21:01:16.728Z,96084.97
2019-05-23T21:03:44.153Z,96077.34
2019-05-23T21:06:11.210Z,96084.34
2019-05-23T21:08:38.255Z,96074.45
2019-05-23T21:11:05.621Z,96083.45
2019-05-23T21:13:32.960Z,96084.50
2019-05-23T21:15:59.993Z,96076.06
2019-05-23T21:18:27.043Z,96082.41
2019-05-23T21:20:54.425Z,96081.29
2019-05-23T21:23:21.776Z,96082.08
2019-05-23T21:25:49.122Z,96084.80
2019-05-23T21:28:16.471Z,96078.97
2019-05-23T21:30:43.507Z,96083.63
2019-05-23T21:33:10.566Z,96079.28
2019-05-23T21:35:37.798Z,96081.35
2019-05-23T21:38:05.176Z,96087.31
2019-05-23T21:40:32.451Z,96082.97
2019-05-23T21:42:59.509Z,96079.73
2019-05-23T21:45:26.545Z,96078.32
2019-05-23T21:47:53.595Z,96079.03
2019-05-23T21:50:20.632Z,96083.81
2019-05-23T21:52:47.683Z,96084.49
2019-05-23T21:55:14.719Z,96084.17
2019-05-23T21:57:42.078Z,96085.66
2019-05-23T22:00:09.425Z,96083.72
2019-05-23T22:02:38.095Z,96081.91
2019-05-23T22:05:05.476Z,96080.46
2019-05-23T22:07:32.586Z,96079.02
2019-05-23T22:09:59.989Z,96082.20
2019-05-23T22:12:27.325Z,96074.38
2019-05-23T22:14:54.690Z,96080.78
2019-05-23T22:17:22.035Z,96074.77
2019-05-23T22:19:49.396Z,96071.86
2019-05-23T22:22:16.430Z,96069.14
2019-05-23T22:24:43.492Z,96069.17
2019-05-23T22:27:10.536Z,96062.16
2019-05-23T22:29:37.919Z,96062.52
2019-05-23T22:32:05.250Z,96057.16
2019-05-23T22:34:32.601Z,96059.67
2019-05-23T22:36:59.890Z,96054.00
2019-05-23T22:39:26.936Z,96052.89
2019-05-23T22:41:54.259Z,96055.72
2019-05-23T22:44:21.613Z,96058.04
2019-05-23T22:46:48.650Z,96056.12
2019-05-23T22:49:15.957Z,96065.94
2019-05-23T22:51:43.331Z,96058.61
2019-05-23T22:54:10.376Z,96052.30
2019-05-23T22:56:37.674Z,96054.78
2019-05-23T22:59:04.983Z,96052.84
2019-05-23T23:01:32.022Z,96053.01
2019-05-23T23:03:59.171Z,96049.63
2019-05-23T23:06:26.205Z,96047.52
2019-05-23T23:08:53.544Z,96053.73
2019-05-23T23:11:20.878Z,96048.84
2019-05-23T23:13:47.931Z,96050.83
2019-05-23T23:16:15.286Z,96041.38
2019-05-23T23:18:42.416Z,96049.70
2019-05-23T23:21:09.438Z,96048.57
2019-05-23T23:23:36.471Z,96048.57
2019-05-23T23:26:03.517Z,96044.98
2019-05-23T23:28:30.893Z,96047.60
2019-05-23T23:30:57.938Z,96039.77
2019-05-23T23:33:25.351Z,96038.47
2019-05-23T23:35:52.415Z,96037.02
2019-05-23T23:38:19.697Z,96034.56
2019-05-23T23:40:47.113Z,96034.09
2019-05-23T23:43:14.150Z,96037.37
2019-05-23T23:45:41.197Z,96035.25
2019-05-23T23:48:08.545Z,96035.59
2019-05-23T23:50:35.899Z,96036.09
2019-05-23T23:53:02.937Z,96030.10
2019-05-23T23:55:29.984Z,96029.47
2019-05-23T23:57:57.022Z,96030.64
